Time;durP1;ratioP1;P1;durP2;ratioP2;P2;SDS_P1;SDS_P2;PMS_P1;PMS_P2;Temp;Humidity;BMP_temperature;BMP_pressure;BME280_temperature;BME280_humidity;BME280_pressure;Samples;Min_cycle;Max_cycle;Signal;HPM_P1;HPM_P2
2022/11/10 00:02:23;;;;;;;16.63;10.05;;;;;;;9.74;71.87;100256.13;6107465;23;20452;-81
2022/11/10 00:05:08;;;;;;;14.15;8.38;;;;;;;9.65;72.22;100250.03;6126641;23;20024;-82
2022/11/10 00:07:53;;;;;;;13.18;8.73;;;;;;;9.79;72.31;100257.88;6130795;23;20069;-81
2022/11/10 00:10:57;;;;;;;14.57;8.95;;;;;;;9.74;72.01;100254.38;6089198;23;20022;-80
2022/11/10 00:17:03;;;;;;;13.85;9.10;;;;;;;9.64;71.83;100211.06;6147547;23;20025;-79
2022/11/10 00:19:47;;;;;;;14.60;8.73;;;;;;;9.70;71.87;100221.50;6080074;23;20017;-82
2022/11/10 00:22:34;;;;;;;14.38;9.40;;;;;;;9.86;71.91;100253.53;6081355;23;20068;-82
2022/11/10 00:25:19;;;;;;;15.43;9.32;;;;;;;9.72;71.71;100242.25;6100950;23;20069;-82
2022/11/10 00:28:04;;;;;;;13.23;8.50;;;;;;;9.81;71.82;100257.88;6126734;23;20018;-81
2022/11/10 00:30:51;;;;;;;16.50;9.27;;;;;;;9.32;71.82;100166.00;6104805;23;20049;-82
2022/11/10 00:33:41;;;;;;;16.77;9.23;;;;;;;8.70;71.65;100063.72;6101250;23;20018;-82
2022/11/10 00:36:28;;;;;;;14.93;9.20;;;;;;;9.58;71.87;100211.06;6089165;23;20018;-82
2022/11/10 00:39:16;;;;;;;14.35;8.85;;;;;;;9.85;71.73;100238.81;6087318;23;20025;-81
2022/11/10 00:42:02;;;;;;;15.25;9.35;;;;;;;8.81;71.44;100064.63;6113119;23;20024;-81
2022/11/10 00:44:47;;;;;;;14.68;9.38;;;;;;;9.85;71.81;100246.59;6102404;23;20013;-82
2022/11/10 00:47:32;;;;;;;14.73;9.32;;;;;;;8.77;71.62;100056.81;6083443;23;20018;-81
2022/11/10 00:50:16;;;;;;;14.23;9.60;;;;;;;9.71;71.48;100225.78;6104669;23;20072;-81
2022/11/10 00:53:04;;;;;;;15.15;9.27;;;;;;;9.83;71.80;100243.13;6080356;23;20049;-82
2022/11/10 00:55:51;;;;;;;15.77;9.35;;;;;;;9.17;71.60;100127.88;6079920;23;20041;-81
2022/11/10 00:58:36;;;;;;;15.85;9.27;;;;;;;9.84;71.68;100257.00;6126557;23;20041;-81
2022/11/10 01:01:32;;;;;;;14.10;9.35;;;;;;;9.54;71.64;100183.34;6100199;23;20021;-82
2022/11/10 01:04:20;;;;;;;17.80;9.73;;;;;;;9.87;71.59;100255.28;6125454;23;20024;-81
2022/11/10 01:07:04;;;;;;;13.85;8.80;;;;;;;8.77;71.46;100049.91;6100170;23;20017;-83
2022/11/10 01:09:52;;;;;;;16.80;9.48;;;;;;;8.83;71.32;100075.84;6136091;23;20017;-82
2022/11/10 01:12:43;;;;;;;13.48;9.45;;;;;;;9.01;71.44;100105.34;6100487;23;20073;-81
2022/11/10 01:15:41;;;;;;;17.33;9.75;;;;;;;9.52;71.69;100185.94;6081905;23;20021;-82
2022/11/10 01:18:33;;;;;;;15.13;9.18;;;;;;;9.55;71.22;100185.94;6110065;23;20108;-83
2022/11/10 01:21:21;;;;;;;14.07;8.88;;;;;;;9.48;71.59;100168.59;6117615;23;20041;-81
2022/11/10 01:24:06;;;;;;;16.17;10.00;;;;;;;9.87;71.24;100223.22;6141437;23;20029;-81
2022/11/10 01:26:50;;;;;;;15.88;8.95;;;;;;;9.95;71.63;100224.97;6136507;23;20074;-80
2022/11/10 01:29:35;;;;;;;16.30;9.77;;;;;;;9.96;71.17;100212.81;6130105;23;20018;-83
2022/11/10 01:32:19;;;;;;;16.63;9.35;;;;;;;9.71;71.14;100175.56;6127991;23;20104;-81
2022/11/10 01:35:05;;;;;;;15.30;8.82;;;;;;;9.60;71.02;100168.59;6102021;23;20021;-81
2022/11/10 01:37:51;;;;;;;17.48;10.32;;;;;;;9.80;71.35;100211.97;6136887;23;20017;-79
2022/11/10 01:40:36;;;;;;;13.82;9.00;;;;;;;9.65;71.05;100179.03;6119547;23;20024;-82
2022/11/10 01:43:21;;;;;;;19.10;9.85;;;;;;;9.82;71.48;100206.75;6118439;23;20017;-81
2022/11/10 01:46:08;;;;;;;15.25;9.35;;;;;;;9.94;71.22;100230.16;6123417;23;20025;-81
2022/11/10 01:49:01;;;;;;;15.55;9.60;;;;;;;9.68;71.51;100193.75;6120008;23;20037;-81
2022/11/10 01:52:08;;;;;;;16.15;9.98;;;;;;;9.76;71.44;100198.09;6115337;23;20018;-82
2022/11/10 01:54:53;;;;;;;16.63;9.43;;;;;;;9.80;71.30;100210.22;6124178;23;19998;-79
2022/11/10 01:57:40;;;;;;;16.30;9.40;;;;;;;9.97;71.02;100224.94;6107953;23;20062;-81
2022/11/10 02:00:25;;;;;;;16.52;9.38;;;;;;;9.94;71.08;100212.84;6127648;23;20016;-80
2022/11/10 02:03:34;;;;;;;21.92;9.98;;;;;;;9.78;70.97;100200.69;6106888;23;20026;-81
2022/11/10 02:06:21;;;;;;;18.75;9.48;;;;;;;9.71;71.25;100194.59;6126071;23;20014;-81
2022/11/10 02:09:06;;;;;;;15.65;9.63;;;;;;;9.84;71.48;100208.47;6148882;23;20005;-82
2022/11/10 02:11:54;;;;;;;17.33;8.52;;;;;;;9.69;71.02;100198.09;6096843;23;20482;-81
2022/11/10 02:14:39;;;;;;;16.63;10.27;;;;;;;9.50;71.56;100177.28;6140975;23;20018;-80
2022/11/10 02:17:23;;;;;;;16.77;9.95;;;;;;;9.68;71.26;100212.81;6084347;23;20413;-83
2022/11/10 02:20:11;;;;;;;20.30;10.45;;;;;;;9.59;71.06;100202.41;6105823;23;20022;-82
2022/11/10 02:22:56;;;;;;;16.40;9.13;;;;;;;9.44;71.27;100188.53;6103578;23;20068;-81
2022/11/10 02:25:42;;;;;;;14.63;9.48;;;;;;;9.39;71.59;100182.44;6137077;23;20033;-80
2022/11/10 02:28:27;;;;;;;17.05;9.57;;;;;;;9.50;71.42;100204.09;6124020;23;20018;-82
2022/11/10 02:31:12;;;;;;;18.98;10.02;;;;;;;9.52;71.75;100211.91;6128301;23;20001;-81
2022/11/10 02:33:57;;;;;;;19.90;10.20;;;;;;;9.49;71.88;100194.56;6125311;23;20028;-82
2022/11/10 02:36:41;;;;;;;16.05;9.85;;;;;;;9.48;71.86;100195.47;6127033;23;19998;-81
2022/11/10 02:39:25;;;;;;;17.05;9.85;;;;;;;9.46;71.56;100193.72;6129670;23;20017;-80
2022/11/10 02:42:10;;;;;;;19.75;10.57;;;;;;;9.42;71.46;100184.19;6117512;23;20021;-80
2022/11/10 02:44:56;;;;;;;18.58;10.52;;;;;;;9.58;71.44;100211.94;6120935;23;20037;-80
2022/11/10 02:47:40;;;;;;;23.92;10.48;;;;;;;9.23;71.39;100167.72;6099241;23;20018;-79
2022/11/10 02:50:25;;;;;;;15.75;10.38;;;;;;;9.56;71.35;100216.25;6149440;23;20017;-79
2022/11/10 02:53:11;;;;;;;15.77;10.18;;;;;;;9.37;71.57;100185.91;6126786;23;20021;-80
2022/11/10 02:55:55;;;;;;;18.13;10.10;;;;;;;9.54;71.21;100225.78;6123543;23;19994;-81
2022/11/10 02:58:40;;;;;;;18.23;9.88;;;;;;;9.54;71.71;100219.69;6147777;23;20109;-80
2022/11/10 03:01:25;;;;;;;17.63;9.90;;;;;;;9.50;71.68;100222.28;6144576;23;20013;-82
2022/11/10 03:04:09;;;;;;;18.52;10.43;;;;;;;9.22;71.75;100186.75;6150439;23;20018;-81
2022/11/10 03:06:54;;;;;;;18.83;10.75;;;;;;;9.28;71.65;100195.41;6117361;23;20017;-81
2022/11/10 03:09:39;;;;;;;16.58;10.05;;;;;;;9.31;71.44;100215.31;6149624;23;20008;-82
2022/11/10 03:12:24;;;;;;;18.15;10.30;;;;;;;9.28;71.70;100204.91;6058989;23;1338606;-85
2022/11/10 03:15:09;;;;;;;17.05;9.80;;;;;;;9.25;71.90;100198.00;6110124;23;20015;-81
2022/11/10 03:17:54;;;;;;;19.15;10.23;;;;;;;9.13;71.63;100187.59;6086793;23;20018;-82
2022/11/10 03:20:40;;;;;;;17.70;10.57;;;;;;;8.81;71.42;100126.91;6088565;23;20018;-82
2022/11/10 03:23:24;;;;;;;15.60;10.05;;;;;;;8.70;71.84;100132.06;6109175;23;20018;-81
2022/11/10 03:26:09;;;;;;;16.85;10.60;;;;;;;9.41;71.69;100217.09;6106531;23;20488;-83
2022/11/10 03:28:53;;;;;;;16.17;9.70;;;;;;;9.41;71.63;100222.28;6100401;23;20025;-83
2022/11/10 03:31:38;;;;;;;17.77;10.15;;;;;;;8.19;71.58;100014.25;6100178;23;20037;-82
2022/11/10 03:34:26;;;;;;;16.60;10.18;;;;;;;8.64;71.60;100106.09;6097747;23;20022;-81
2022/11/10 03:37:10;;;;;;;15.43;10.40;;;;;;;9.18;72.46;100191.03;6101528;23;20078;-81
2022/11/10 03:39:55;;;;;;;23.70;15.05;;;;;;;9.25;71.93;100204.94;6098786;23;20029;-82
2022/11/10 03:42:43;;;;;;;20.55;10.90;;;;;;;9.33;71.79;100227.47;6098259;23;20018;-82
2022/11/10 03:45:29;;;;;;;17.95;10.30;;;;;;;8.98;71.56;100173.66;6106226;23;20018;-81
2022/11/10 03:48:14;;;;;;;18.10;10.77;;;;;;;8.69;71.59;100124.25;6106331;23;20022;-80
2022/11/10 03:50:58;;;;;;;20.30;10.27;;;;;;;7.99;71.61;99997.72;6115540;23;20044;-80
2022/11/10 03:53:43;;;;;;;16.58;10.20;;;;;;;8.97;71.45;100171.94;6105858;23;20022;-80
2022/11/10 03:56:27;;;;;;;17.52;9.65;;;;;;;9.25;71.66;100208.38;6077352;23;20552;-81
2022/11/10 03:59:12;;;;;;;17.55;10.25;;;;;;;9.07;71.64;100182.38;6098262;23;20024;-81
2022/11/10 04:01:56;;;;;;;16.52;10.32;;;;;;;9.23;71.75;100222.25;6098061;23;20045;-81
2022/11/10 04:18:57;;;;;;;18.48;9.38;;;;;;;9.06;71.37;100215.22;6009479;23;20023;-83
2022/11/10 04:23:25;;;;;;;18.23;10.07;;;;;;;8.15;71.15;100098.91;5989410;23;20023;-80
2022/11/10 04:26:27;;;;;;;16.35;10.25;;;;;;;7.81;71.29;100045.16;6127437;23;20022;-83
2022/11/10 04:28:49;;;;;;;16.17;10.27;;;;;;;7.72;71.51;100034.72;6127818;23;20033;-81
2022/11/10 04:31:38;;;;;;;14.35;9.60;;;;;;;8.65;71.65;100185.66;6107090;23;20022;-82
2022/11/10 04:34:23;;;;;;;16.23;9.90;;;;;;;8.77;71.45;100212.50;6107845;23;20033;-83
2022/11/10 04:37:07;;;;;;;19.48;10.15;;;;;;;8.04;71.62;100090.19;6082918;23;20077;-82
2022/11/10 04:40:01;;;;;;;18.92;9.55;;;;;;;8.77;71.83;100215.09;6127429;23;20104;-81
2022/11/10 04:42:51;;;;;;;16.02;8.77;;;;;;;8.62;72.09;100183.03;6126265;23;20025;-84
2022/11/10 04:45:57;;;;;;;21.33;10.15;;;;;;;8.50;71.45;100186.44;6105917;23;20464;-83
2022/11/10 04:48:53;;;;;;;;;;;;;;;8.63;71.08;100215.03;6081466;23;20072;-85
2022/11/10 04:52:36;;;;;;;14.98;8.32;;;;;;;7.57;71.17;100068.28;6127215;23;20364;-83
2022/11/10 05:00:44;;;;;;;;;;;;;;;;;;;;;
2022/11/10 05:04:23;;;;;;;15.10;8.88;;;;;;;8.48;71.50;100246.91;6129029;23;20108;-83
2022/11/10 05:07:42;;;;;;;17.33;9.25;;;;;;;7.49;71.15;100087.22;6113621;23;20045;-81
2022/11/10 05:11:03;;;;;;;15.35;7.95;;;;;;;8.39;71.15;100266.72;6105158;23;20486;-82
2022/11/10 05:14:11;;;;;;;14.77;8.32;;;;;;;7.29;71.50;100086.19;6099923;23;20026;-82
2022/11/10 05:21:51;;;;;;;12.63;7.88;;;;;;;8.30;71.69;100261.47;5980338;24;20063;-81
2022/11/10 05:25:32;;;;;;;;;;;;;;;;;;;;;
2022/11/10 05:29:55;;;;;;;16.23;8.30;;;;;;;7.02;70.84;100052.28;6078135;23;20029;-80
2022/11/10 05:33:35;;;;;;;19.20;8.35;;;;;;;7.78;71.31;100194.50;6081484;23;20023;-80
2022/11/10 05:42:32;;;;;;;;;;;;;;;;;;;;;
2022/11/10 05:45:52;;;;;;;13.52;7.60;;;;;;;7.19;71.24;100111.97;6109617;23;20025;-81
2022/11/10 05:48:58;;;;;;;12.43;8.02;;;;;;;8.02;71.45;100245.69;6116096;23;20022;-81
2022/11/10 05:51:48;;;;;;;13.55;7.57;;;;;;;7.20;70.98;100123.19;6105966;23;20029;-82
2022/11/10 05:54:33;;;;;;;16.88;8.13;;;;;;;6.91;70.92;100075.47;6132011;23;20049;-81
2022/11/10 05:57:21;;;;;;;13.13;7.63;;;;;;;7.56;71.21;100163.22;6119216;23;20033;-83
2022/11/10 06:00:11;;;;;;;18.88;7.82;;;;;;;7.54;70.98;100147.69;6144610;23;20017;-82
2022/11/10 06:03:11;;;;;;;12.88;7.35;;;;;;;8.21;71.12;100238.91;6121725;23;20104;-82
2022/11/10 06:06:04;;;;;;;20.08;9.00;;;;;;;7.80;71.27;100160.00;6138294;23;20018;-84
2022/11/10 06:08:49;;;;;;;14.68;7.03;;;;;;;8.54;71.42;100254.75;6111474;23;20024;-84
2022/11/10 06:11:33;;;;;;;16.25;7.65;;;;;;;8.24;71.09;100158.56;6103228;23;20476;-84
2022/11/10 06:14:18;;;;;;;15.05;7.82;;;;;;;8.50;71.26;100152.72;6103232;23;20014;-81
2022/11/10 06:17:03;;;;;;;12.95;6.90;;;;;;;8.53;70.66;100099.97;6110333;23;20021;-83
2022/11/10 06:19:48;;;;;;;12.77;7.13;;;;;;;10.23;70.41;100232.78;6119041;23;20017;-83
2022/11/10 06:22:35;;;;;;;16.80;7.47;;;;;;;10.54;69.75;100075.78;6132127;23;20021;-84
2022/11/10 06:25:53;;;;;;;14.90;6.10;;;;;;;12.54;68.38;100209.00;6130493;23;20464;-84
2022/11/10 06:28:40;;;;;;;12.68;7.03;;;;;;;12.63;67.51;100139.28;6130912;23;20080;-84
2022/11/10 06:31:28;;;;;;;12.60;6.63;;;;;;;13.57;65.11;100167.66;6133547;23;20057;-86
2022/11/10 06:34:16;;;;;;;11.25;6.85;;;;;;;13.29;63.12;100143.66;6110238;23;20018;-83
2022/11/10 06:37:00;;;;;;;12.27;6.28;;;;;;;12.59;62.68;100161.06;6106650;23;20486;-84
2022/11/10 06:39:48;;;;;;;14.00;7.03;;;;;;;12.22;63.13;100234.53;6136956;23;20010;-86
2022/11/10 06:42:45;;;;;;;15.35;7.82;;;;;;;11.39;62.64;100208.13;6133204;23;20032;-85
2022/11/10 06:45:40;;;;;;;13.75;7.35;;;;;;;10.44;62.71;100126.97;6134605;23;20018;-83
2022/11/10 06:49:05;;;;;;;16.25;6.90;;;;;;;10.95;63.00;100235.25;6135548;23;20085;-83
2022/11/10 06:51:51;;;;;;;11.60;6.82;;;;;;;10.61;63.09;100217.97;6132189;23;20404;-83
2022/11/10 06:55:24;;;;;;;18.00;7.10;;;;;;;9.87;63.55;100143.50;6106376;23;20081;-84
2022/11/10 06:58:33;;;;;;;17.20;7.32;;;;;;;9.76;63.36;100133.13;6086635;23;20026;-85
2022/11/10 07:01:28;;;;;;;17.10;8.32;;;;;;;9.95;62.56;100154.78;6098629;23;20049;-83
2022/11/10 07:04:25;;;;;;;16.95;8.20;;;;;;;10.38;63.72;100249.22;6107837;23;20025;-83
2022/11/10 07:07:46;;;;;;;18.45;8.55;;;;;;;9.18;63.43;100037.84;6133907;23;20210;-84
2022/11/10 07:10:32;;;;;;;13.20;7.90;;;;;;;9.13;63.19;100021.44;6140581;23;20022;-80
2022/11/10 07:13:25;;;;;;;14.85;7.43;;;;;;;10.25;63.64;100215.44;6133136;23;20115;-82
2022/11/10 07:20:10;;;;;;;12.98;7.55;;;;;;;10.32;63.50;100190.28;6112459;23;20018;-81
2022/11/10 07:23:07;;;;;;;13.48;7.20;;;;;;;10.22;63.41;100105.31;6093791;23;20076;-81
2022/11/10 07:25:53;;;;;;;14.32;6.85;;;;;;;10.72;63.64;100077.41;6121961;23;20018;-82
2022/11/10 07:29:17;;;;;;;30.73;10.82;;;;;;;12.87;62.97;100226.03;6146530;23;20036;-81
2022/11/10 07:32:34;;;;;;;13.52;6.95;;;;;;;12.86;61.50;100145.09;6143259;23;20037;-84
2022/11/10 07:35:37;;;;;;;11.32;6.75;;;;;;;12.96;60.43;100089.25;6021035;23;20034;-82
2022/11/10 07:38:24;;;;;;;10.52;6.25;;;;;;;12.74;59.21;100060.81;6023102;23;20119;-82
2022/11/10 07:41:28;;;;;;;16.75;8.25;;;;;;;14.03;58.62;100175.63;5996128;23;20022;-83
2022/11/10 07:44:41;;;;;;;14.10;6.97;;;;;;;14.43;57.34;100152.22;6017031;23;20062;-82
2022/11/10 07:47:32;;;;;;;11.75;7.28;;;;;;;14.98;57.67;100117.09;6015477;23;20025;-82
2022/11/10 07:50:23;;;;;;;13.57;7.18;;;;;;;16.03;56.90;100062.13;6015184;23;20019;-82
2022/11/10 07:53:23;;;;;;;14.00;7.57;;;;;;;17.94;53.53;100116.78;6014815;23;20408;-83
2022/11/10 07:56:08;;;;;;;23.38;8.23;;;;;;;18.70;51.50;100089.50;5994023;23;20015;-84
2022/11/10 07:59:12;;;;;;;14.73;7.82;;;;;;;18.29;48.56;100017.25;6015643;23;20592;-83
2022/11/10 08:06:00;;;;;;;17.70;7.90;;;;;;;15.85;48.51;100215.59;6100736;23;20367;-82
2022/11/10 08:09:29;;;;;;;;;;;;;;;;;;;;;
2022/11/10 08:13:35;;;;;;;;;;;;;;;;;;;;;
2022/11/10 08:16:20;;;;;;;24.35;8.90;;;;;;;12.15;52.10;100052.84;6102013;23;20017;-81
2022/11/10 08:19:25;;;;;;;14.55;8.88;;;;;;;12.71;52.70;100193.13;6100989;23;20478;-83
2022/11/10 08:22:48;;;;;;;;;;;;;;;;;;;;;
2022/11/10 08:25:52;;;;;;;;;;;;;;;;;;;;;
2022/11/10 08:29:01;;;;;;;17.92;9.05;;;;;;;12.16;54.56;100258.91;6102090;23;20021;-83
2022/11/10 08:36:10;;;;;;;16.02;8.82;;;;;;;11.77;55.31;100249.63;6055543;23;20077;-86
2022/11/10 08:39:08;;;;;;;17.15;9.38;;;;;;;10.56;55.72;100089.66;6081616;23;20028;-86
2022/11/10 08:42:38;;;;;;;20.67;9.52;;;;;;;10.81;56.16;100123.38;6102522;23;20029;-82
2022/11/10 08:46:15;;;;;;;16.20;9.20;;;;;;;10.94;56.40;100204.88;5988023;23;20020;-85
2022/11/10 08:49:05;;;;;;;19.30;9.00;;;;;;;9.89;57.23;100030.00;5974213;23;20192;-84
2022/11/10 08:51:50;;;;;;;13.20;8.13;;;;;;;10.17;57.63;100097.53;6128419;23;20371;-82
2022/11/10 08:54:35;;;;;;;21.98;9.05;;;;;;;10.91;58.05;100233.53;6130183;23;20036;-82
2022/11/10 08:57:20;;;;;;;17.70;9.02;;;;;;;10.82;58.25;100232.69;6127548;23;20018;-81
2022/11/10 09:00:05;;;;;;;24.92;9.77;;;;;;;10.70;58.42;100235.34;6127368;23;20018;-81
2022/11/10 09:06:57;;;;;;;17.52;8.90;;;;;;;10.51;59.27;100187.66;6100044;23;20025;-82
2022/11/10 09:10:29;;;;;;;15.35;8.82;;;;;;;9.58;59.28;100005.81;6082338;23;20025;-83
2022/11/10 09:13:41;;;;;;;18.92;9.05;;;;;;;10.34;58.96;100130.44;6124686;23;20025;-82
2022/11/10 09:16:59;;;;;;;19.75;9.30;;;;;;;10.82;59.42;100185.84;6069147;23;20029;-83
2022/11/10 09:19:43;;;;;;;16.02;9.55;;;;;;;11.14;59.51;100221.28;6107421;23;20583;-83
2022/11/10 09:22:33;;;;;;;21.63;9.88;;;;;;;11.24;59.76;100216.03;6110460;23;20021;-83
2022/11/10 09:25:25;;;;;;;20.30;9.10;;;;;;;11.37;59.76;100220.28;6085926;23;20026;-84
2022/11/10 09:28:23;;;;;;;18.70;9.55;;;;;;;11.28;59.40;100197.75;6130579;23;20376;-86
2022/11/10 09:31:08;;;;;;;17.65;9.25;;;;;;;11.08;59.13;100168.34;6105956;23;20018;-84
2022/11/10 09:33:58;;;;;;;20.77;10.18;;;;;;;11.40;59.16;100224.63;6083958;23;20018;-84
2022/11/10 09:36:47;;;;;;;21.05;8.55;;;;;;;10.93;59.55;100146.72;6131610;23;20113;-85
2022/11/10 09:39:32;;;;;;;16.27;9.30;;;;;;;10.19;59.96;100016.91;6105942;23;20452;-83
2022/11/10 09:42:40;;;;;;;19.75;9.30;;;;;;;11.04;59.04;100143.19;6103821;23;20014;-84
2022/11/10 09:46:11;;;;;;;15.77;9.85;;;;;;;11.48;59.52;100222.00;6108502;23;20460;-84
2022/11/10 09:49:49;;;;;;;17.05;9.15;;;;;;;10.49;59.57;100061.91;6113005;23;20029;-86
2022/11/10 09:53:45;;;;;;;20.05;9.48;;;;;;;10.79;59.72;100089.53;6027905;23;20440;-87
2022/11/10 09:56:54;;;;;;;20.98;10.18;;;;;;;11.75;59.76;100211.38;6113989;23;20001;-86
2022/11/10 09:59:58;;;;;;;19.30;9.63;;;;;;;11.37;59.53;100100.44;6091965;23;20076;-87
2022/11/10 10:03:12;;;;;;;23.42;9.85;;;;;;;11.89;59.51;100134.78;6096306;23;20026;-85
2022/11/10 10:06:12;;;;;;;18.98;9.80;;;;;;;12.02;58.89;100097.34;6128725;23;20049;-83
2022/11/10 10:09:15;;;;;;;16.90;9.05;;;;;;;12.63;58.86;100144.50;6083437;23;20025;-84
2022/11/10 10:12:12;;;;;;;21.45;10.82;;;;;;;12.86;58.12;100145.09;6103123;23;20037;-85
2022/11/10 10:15:15;;;;;;;18.45;9.73;;;;;;;13.26;57.65;100186.34;6084041;23;20041;-85
2022/11/10 10:18:18;;;;;;;17.55;9.73;;;;;;;12.98;56.84;100118.81;6105424;23;20010;-84
2022/11/10 10:21:19;;;;;;;15.73;9.77;;;;;;;13.11;56.94;100124.75;6133995;23;20360;-84
2022/11/10 10:24:04;;;;;;;18.58;9.82;;;;;;;13.51;56.68;100176.47;6115828;23;20577;-84
2022/11/10 10:27:03;;;;;;;18.65;9.55;;;;;;;13.44;56.05;100187.88;6112563;23;20120;-84
2022/11/10 10:29:49;;;;;;;17.50;9.73;;;;;;;13.24;55.61;100147.19;6115635;23;20154;-84
2022/11/10 10:32:37;;;;;;;22.63;9.77;;;;;;;12.88;56.35;100111.97;6127725;23;20053;-83
2022/11/10 10:35:22;;;;;;;23.60;9.85;;;;;;;12.35;55.83;100040.44;6082775;23;20022;-83
2022/11/10 10:38:31;;;;;;;18.98;9.82;;;;;;;12.80;55.90;100165.16;6086012;23;20018;-85
2022/11/10 10:41:57;;;;;;;17.55;9.95;;;;;;;13.06;56.10;100199.69;6112389;23;20524;-84
2022/11/10 10:45:13;;;;;;;22.83;10.00;;;;;;;13.06;55.85;100187.47;6106514;23;20021;-85
2022/11/10 10:48:25;;;;;;;24.77;10.07;;;;;;;13.02;56.21;100193.63;6084796;23;20022;-82
2022/11/10 10:51:10;;;;;;;19.42;10.30;;;;;;;12.32;56.16;100099.63;6099827;23;20021;-82
2022/11/10 10:53:54;;;;;;;18.00;9.38;;;;;;;11.62;56.04;100010.78;6128299;23;20073;-81
2022/11/10 10:56:39;;;;;;;18.73;10.15;;;;;;;12.41;55.79;100140.41;6124393;23;20014;-83
2022/11/10 10:59:24;;;;;;;20.10;10.25;;;;;;;11.93;56.21;100060.00;6124289;23;20021;-83
2022/11/10 11:02:31;;;;;;;21.58;9.85;;;;;;;12.61;56.38;100177.59;6148724;23;20033;-85
2022/11/10 11:05:18;;;;;;;16.95;10.15;;;;;;;11.72;56.24;100052.38;6121455;23;20053;-85
2022/11/10 11:08:03;;;;;;;22.95;10.93;;;;;;;12.15;56.17;100154.59;6114880;23;20038;-84
2022/11/10 11:11:20;;;;;;;22.52;10.70;;;;;;;11.55;56.38;100083.81;6101164;23;20018;-85
2022/11/10 11:14:26;;;;;;;17.90;10.18;;;;;;;11.99;56.61;100166.91;6106074;23;20049;-85
2022/11/10 11:17:12;;;;;;;24.67;10.68;;;;;;;11.41;57.04;100064.81;6086850;23;20022;-84
2022/11/10 11:20:03;;;;;;;22.77;10.38;;;;;;;11.38;56.80;100073.50;6109861;23;20073;-87
2022/11/10 11:23:20;;;;;;;21.67;9.82;;;;;;;11.40;57.13;100094.38;6110566;23;20456;-85
2022/11/10 11:26:18;;;;;;;17.25;10.23;;;;;;;11.70;57.76;100136.69;6110838;23;20097;-83
2022/11/10 11:29:43;;;;;;;20.63;10.25;;;;;;;11.38;57.72;100117.81;6132198;23;20049;-84
2022/11/10 11:33:01;;;;;;;20.27;9.90;;;;;;;11.71;57.75;100181.00;6112960;23;20068;-86
2022/11/10 11:35:48;;;;;;;20.27;10.07;;;;;;;11.63;58.08;100184.53;6114631;23;20015;-84
2022/11/10 11:39:09;;;;;;;16.73;9.85;;;;;;;11.60;58.24;100177.59;6112219;23;20105;-83
2022/11/10 11:42:23;;;;;;;23.38;9.43;;;;;;;11.45;58.55;100155.97;6078399;23;20029;-83
2022/11/10 11:45:35;;;;;;;15.80;9.52;;;;;;;10.59;58.65;100023.69;6123280;23;20017;-86
2022/11/10 11:49:20;;;;;;;18.90;10.15;;;;;;;11.43;58.95;100175.13;6141821;23;20104;-82
2022/11/10 11:52:36;;;;;;;18.17;10.15;;;;;;;11.33;58.96;100194.28;6132396;23;20073;-84
2022/11/10 11:55:31;;;;;;;20.05;10.10;;;;;;;11.32;59.40;100200.34;6088584;23;20022;-83
2022/11/10 11:58:53;;;;;;;16.70;9.35;;;;;;;11.32;59.37;100195.16;6131748;23;20018;-83
2022/11/10 12:02:02;;;;;;;19.10;10.20;;;;;;;10.53;59.82;100054.06;6072966;23;20022;-82
2022/11/10 12:04:57;;;;;;;;;;;;;;;11.39;59.50;100191.63;6104879;23;20028;-83
2022/11/10 12:08:09;;;;;;;14.40;9.43;;;;;;;11.14;59.90;100153.56;6106131;23;20267;-84
2022/11/10 12:11:49;;;;;;;18.33;9.63;;;;;;;10.35;59.36;100015.13;6104022;23;20018;-82
2022/11/10 12:15:09;;;;;;;16.00;9.70;;;;;;;11.57;59.58;100185.47;6106834;23;20026;-84
2022/11/10 12:18:40;;;;;;;22.85;10.38;;;;;;;11.54;59.42;100181.09;6108798;23;20014;-83
2022/11/10 12:21:58;;;;;;;20.13;9.23;;;;;;;11.44;59.79;100185.53;6145801;23;20030;-84
2022/11/10 12:25:06;;;;;;;20.55;9.40;;;;;;;11.11;59.87;100130.16;6115919;23;20013;-84
2022/11/10 12:28:53;;;;;;;22.40;9.70;;;;;;;11.34;60.17;100178.66;6107545;23;20077;-82
2022/11/10 12:31:49;;;;;;;26.65;10.07;;;;;;;10.09;60.18;99995.28;6085999;23;20389;-82
2022/11/10 12:34:55;;;;;;;19.58;10.57;;;;;;;11.22;60.17;100195.22;6109054;23;20021;-82
2022/11/10 12:38:02;;;;;;;;;;;;;;;;;;;;;
2022/11/10 12:41:13;;;;;;;21.70;10.98;;;;;;;10.02;60.23;100022.19;6134558;23;20029;-83
2022/11/10 12:45:22;;;;;;;24.00;10.52;;;;;;;11.04;60.68;100236.94;6089913;23;20026;-82
2022/11/10 12:48:41;;;;;;;;;;;;;;;;;;;;;
2022/11/10 12:51:56;;;;;;;23.58;10.15;;;;;;;9.74;60.78;100030.91;6099470;23;20104;-84
2022/11/10 12:54:46;;;;;;;25.02;11.73;;;;;;;10.03;60.87;100092.38;6081603;23;20351;-84
2022/11/10 12:57:42;;;;;;;18.63;10.68;;;;;;;9.92;61.35;100099.34;6127838;23;20025;-83
2022/11/10 13:00:36;;;;;;;22.15;10.95;;;;;;;10.15;61.82;100133.09;6127818;23;20021;-82
2022/11/10 13:03:36;;;;;;;22.10;11.02;;;;;;;10.67;61.59;100237.94;6101352;23;20145;-81
2022/11/10 13:06:39;;;;;;;20.23;10.65;;;;;;;10.15;61.50;100156.47;6082821;23;20363;-82
2022/11/10 13:09:41;;;;;;;21.75;11.13;;;;;;;9.68;62.04;100095.88;6079549;23;20021;-82
2022/11/10 13:12:26;;;;;;;22.58;11.68;;;;;;;9.93;61.98;100181.66;6094914;23;20112;-83
2022/11/10 13:15:38;;;;;;;19.63;11.55;;;;;;;10.38;62.37;100241.41;6096535;23;20465;-83
2022/11/10 13:18:32;;;;;;;21.00;11.60;;;;;;;10.39;62.58;100244.03;6096918;23;20025;-80
2022/11/10 13:21:17;;;;;;;25.67;11.27;;;;;;;9.92;62.75;100161.72;6097076;23;20436;-83
2022/11/10 13:24:01;;;;;;;20.85;11.02;;;;;;;10.30;62.95;100237.94;6076702;23;20049;-82
2022/11/10 13:26:51;;;;;;;28.58;12.15;;;;;;;10.22;62.82;100251.84;6075869;23;20125;-81
2022/11/10 13:29:42;;;;;;;24.33;11.63;;;;;;;10.17;62.97;100248.38;6097307;23;20018;-80
2022/11/10 13:32:29;;;;;;;20.30;11.13;;;;;;;10.12;63.60;100247.50;6098306;23;20022;-82
2022/11/10 13:35:29;;;;;;;20.95;11.13;;;;;;;10.14;63.71;100258.78;6085696;23;20018;-82
2022/11/10 13:38:32;;;;;;;21.20;11.38;;;;;;;10.15;63.90;100262.25;6081325;23;20029;-83
2022/11/10 13:41:16;;;;;;;28.38;13.77;;;;;;;10.15;64.10;100268.31;6110083;23;20019;-78
2022/11/10 13:44:02;;;;;;;24.08;12.50;;;;;;;9.33;63.96;100133.97;6114005;23;20018;-82
2022/11/10 13:47:09;;;;;;;23.30;12.57;;;;;;;10.06;64.03;100266.56;6119758;23;20038;-80
2022/11/10 13:49:59;;;;;;;24.27;12.90;;;;;;;10.01;64.35;100267.44;6117917;23;20025;-82
2022/11/10 13:53:13;;;;;;;26.92;12.77;;;;;;;9.96;64.40;100285.59;6113784;23;20068;-84
2022/11/10 13:56:19;;;;;;;26.63;12.32;;;;;;;9.91;64.69;100277.81;6112059;23;20018;-80
2022/11/10 13:59:19;;;;;;;29.20;11.88;;;;;;;9.14;64.54;100156.41;6110085;23;20014;-81
2022/11/10 14:02:36;;;;;;;26.50;12.85;;;;;;;9.84;64.65;100276.06;6109751;23;20059;-83
2022/11/10 14:05:30;;;;;;;27.90;12.00;;;;;;;9.84;64.97;100278.66;6121200;23;20026;-84
2022/11/10 14:08:20;;;;;;;23.50;11.82;;;;;;;9.23;65.06;100189.34;6100955;23;20002;-82
2022/11/10 14:11:13;;;;;;;25.00;12.55;;;;;;;8.83;65.11;100117.38;6100112;23;20022;-81
2022/11/10 14:14:22;;;;;;;21.73;12.35;;;;;;;9.43;65.43;100222.28;6101647;23;20022;-84
2022/11/10 14:17:21;;;;;;;30.70;12.45;;;;;;;9.65;65.52;100255.25;6105892;23;20026;-82
2022/11/10 14:20:33;;;;;;;28.75;13.07;;;;;;;9.78;65.39;100283.88;6099987;23;20018;-83
2022/11/10 14:23:30;;;;;;;25.73;13.00;;;;;;;9.62;65.56;100247.44;6099267;23;20082;-83
2022/11/10 14:26:29;;;;;;;23.48;12.68;;;;;;;9.67;65.81;100243.97;6079151;23;20038;-81
2022/11/10 14:29:30;;;;;;;27.98;12.60;;;;;;;9.60;65.38;100222.31;6097617;23;20027;-83
2022/11/10 14:32:23;;;;;;;25.55;13.82;;;;;;;8.62;65.62;100053.34;6103773;23;20105;-81
2022/11/10 14:35:47;;;;;;;28.20;12.98;;;;;;;9.46;65.70;100172.94;6102388;23;20022;-80
2022/11/10 14:38:43;;;;;;;23.98;12.57;;;;;;;9.42;65.64;100161.69;6086015;23;20029;-82
2022/11/10 14:41:29;;;;;;;26.90;13.30;;;;;;;9.32;65.74;100158.22;6107649;23;20044;-83
2022/11/10 14:44:25;;;;;;;34.47;13.90;;;;;;;9.12;65.70;100111.41;6100352;23;20028;-81
2022/11/10 14:47:27;;;;;;;30.48;13.05;;;;;;;9.40;65.96;100146.94;6103257;23;20028;-82